createdAt,value
2023-03-16T00:00:27.847Z,271.34
2023-03-16T00:03:34.136Z,261.04
2023-03-16T00:06:40.844Z,257.35
2023-03-16T00:09:47.196Z,252.18
2023-03-16T00:12:56.764Z,236.34
2023-03-16T00:16:07.858Z,243.78
2023-03-16T00:19:14.656Z,248.72
2023-03-16T00:22:20.512Z,265.18
2023-03-16T00:25:27.402Z,256.58
2023-03-16T00:28:38.297Z,260.27
2023-03-16T00:31:46.906Z,271.70
2023-03-16T00:34:52.898Z,271.37
2023-03-16T00:37:59.604Z,264.81
2023-03-16T00:41:06.841Z,274.27
2023-03-16T00:44:16.074Z,262.01
2023-03-16T00:47:21.962Z,266.53
2023-03-16T00:50:29.009Z,270.81
2023-03-16T00:53:36.628Z,277.60
2023-03-16T00:56:43.420Z,271.02
2023-03-16T00:59:52.828Z,267.58
2023-03-16T01:03:00.811Z,267.99
2023-03-16T01:06:10.424Z,261.55
2023-03-16T01:09:18.364Z,255.37
2023-03-16T01:12:24.261Z,253.71
2023-03-16T01:15:35.019Z,251.91
2023-03-16T01:18:41.719Z,265.52
2023-03-16T01:21:48.509Z,249.98
2023-03-16T01:24:55.232Z,271.44
2023-03-16T01:28:02.151Z,341.00
2023-03-16T01:31:15.630Z,289.26
2023-03-16T01:34:23.104Z,294.38
2023-03-16T01:37:29.195Z,287.55
2023-03-16T01:40:39.836Z,293.41
2023-03-16T01:43:46.630Z,295.99
2023-03-16T01:46:56.048Z,301.92
2023-03-16T01:50:02.708Z,297.84
2023-03-16T01:53:12.886Z,258.31
2023-03-16T01:56:28.796Z,253.60
2023-03-16T01:59:43.305Z,249.23
2023-03-16T02:02:59.490Z,253.65
2023-03-16T02:06:23.513Z,255.43
2023-03-16T02:09:38.625Z,260.20
2023-03-16T02:12:47.455Z,261.85
2023-03-16T02:15:55.449Z,267.08
2023-03-16T02:19:05.359Z,271.39
2023-03-16T02:22:14.242Z,279.88
2023-03-16T02:25:24.120Z,294.92
2023-03-16T02:28:42.885Z,296.47
2023-03-16T02:31:53.048Z,304.36
2023-03-16T02:34:59.962Z,321.50
2023-03-16T02:38:06.913Z,345.76
2023-03-16T02:41:23.484Z,337.53
2023-03-16T02:44:43.997Z,339.79
2023-03-16T02:47:58.087Z,328.66
2023-03-16T02:51:04.970Z,309.12
2023-03-16T02:54:11.966Z,316.50
2023-03-16T02:57:19.417Z,325.40
2023-03-16T03:00:26.455Z,327.32
2023-03-16T03:03:37.019Z,317.51
2023-03-16T03:06:44.727Z,305.45
2023-03-16T03:09:53.808Z,307.80
2023-03-16T03:13:00.625Z,315.48
2023-03-16T03:16:09.296Z,322.96
2023-03-16T03:19:17.924Z,333.11
2023-03-16T03:22:24.773Z,347.97
2023-03-16T03:25:30.706Z,360.82
2023-03-16T03:28:37.415Z,318.32
2023-03-16T03:31:43.918Z,312.84
2023-03-16T03:34:53.666Z,308.76
2023-03-16T03:37:59.705Z,303.96
2023-03-16T03:41:08.516Z,307.40
2023-03-16T03:44:17.889Z,308.01
2023-03-16T03:47:24.974Z,308.24
2023-03-16T03:50:34.555Z,314.29
2023-03-16T03:54:13.487Z,327.55
2023-03-16T03:57:30.154Z,333.97
2023-03-16T04:00:36.784Z,348.31
2023-03-16T04:03:45.149Z,346.32
2023-03-16T04:07:01.338Z,346.50
2023-03-16T04:10:10.773Z,349.63
2023-03-16T04:13:20.411Z,346.52
2023-03-16T04:16:31.723Z,345.88
2023-03-16T04:19:37.938Z,358.49
2023-03-16T04:22:58.714Z,377.97
2023-03-16T04:26:05.811Z,364.31
2023-03-16T04:29:12.913Z,381.51
2023-03-16T04:32:19.106Z,404.20
2023-03-16T04:35:26.096Z,408.59
2023-03-16T04:38:40.627Z,390.54
2023-03-16T04:41:48.947Z,408.75
2023-03-16T04:45:00.218Z,421.08
2023-03-16T04:48:08.632Z,443.20
2023-03-16T04:51:15.831Z,406.00
2023-03-16T04:54:36.463Z,436.04
2023-03-16T04:57:43.965Z,423.62
2023-03-16T05:00:50.686Z,436.27
2023-03-16T05:04:04.162Z,435.33
2023-03-16T05:07:14.204Z,463.19
2023-03-16T05:10:36.082Z,462.09
2023-03-16T05:13:42.941Z,434.47
2023-03-16T05:16:49.038Z,425.38
2023-03-16T05:20:00.545Z,429.15
2023-03-16T05:23:11.989Z,436.07
2023-03-16T05:26:28.517Z,450.80
2023-03-16T05:29:35.450Z,446.95
2023-03-16T05:32:43.228Z,441.46
2023-03-16T05:35:49.320Z,429.03
2023-03-16T05:38:56.147Z,422.35
2023-03-16T05:42:16.270Z,456.77
2023-03-16T05:45:35.446Z,457.12
2023-03-16T05:48:50.744Z,447.63
2023-03-16T05:52:00.031Z,426.47
2023-03-16T05:55:08.698Z,406.64
2023-03-16T05:58:18.524Z,414.22
2023-03-16T06:01:26.173Z,422.40
2023-03-16T06:04:36.413Z,447.28
2023-03-16T06:07:42.353Z,401.05
2023-03-16T06:10:51.436Z,384.02
2023-03-16T06:14:01.569Z,359.56
2023-03-16T06:17:11.905Z,361.73
2023-03-16T06:20:20.332Z,358.81
2023-03-16T06:23:27.899Z,408.62
2023-03-16T06:26:35.260Z,421.76
2023-03-16T06:29:47.676Z,397.35
2023-03-16T06:32:54.163Z,354.69
2023-03-16T06:36:01.984Z,493.23
2023-03-16T06:39:15.830Z,372.56
2023-03-16T06:42:26.986Z,329.36
2023-03-16T06:45:35.627Z,348.77
2023-03-16T06:48:43.689Z,288.78
2023-03-16T06:51:49.661Z,241.27
2023-03-16T06:54:58.715Z,256.88
2023-03-16T06:58:05.997Z,246.21
2023-03-16T07:01:15.447Z,244.82
2023-03-16T07:04:21.946Z,328.20
2023-03-16T07:07:29.274Z,216.63
2023-03-16T07:10:35.545Z,219.71
2023-03-16T07:13:42.289Z,252.46
2023-03-16T07:16:53.072Z,284.93
2023-03-16T07:20:05.714Z,361.07
2023-03-16T07:23:16.691Z,384.88
2023-03-16T07:26:24.125Z,328.90
2023-03-16T07:29:34.460Z,263.36
2023-03-16T07:32:46.567Z,293.22
2023-03-16T07:35:53.633Z,280.03
2023-03-16T07:39:01.525Z,291.84
2023-03-16T07:42:11.555Z,308.00
2023-03-16T07:45:29.266Z,328.64
2023-03-16T07:48:38.646Z,261.42
2023-03-16T07:51:45.408Z,311.19
2023-03-16T07:54:51.794Z,299.04
2023-03-16T07:57:58.603Z,305.61
2023-03-16T08:01:12.836Z,311.70
2023-03-16T08:04:26.582Z,285.09
2023-03-16T08:07:32.697Z,286.35
2023-03-16T08:10:44.738Z,277.18
2023-03-16T08:13:56.869Z,255.49
2023-03-16T08:17:12.794Z,224.12
2023-03-16T08:20:21.956Z,205.57
2023-03-16T08:23:29.675Z,178.82
2023-03-16T08:26:37.634Z,223.12
2023-03-16T08:29:49.753Z,272.47
2023-03-16T08:32:57.546Z,200.62
2023-03-16T08:36:10.475Z,203.36
2023-03-16T08:39:22.867Z,279.51
2023-03-16T08:42:35.076Z,329.14
2023-03-16T08:45:42.871Z,297.29
2023-03-16T08:48:49.691Z,338.55
2023-03-16T08:52:00.858Z,353.92
2023-03-16T08:55:17.672Z,409.03
2023-03-16T08:58:23.575Z,270.42
2023-03-16T09:01:30.417Z,183.29
2023-03-16T09:04:36.443Z,214.14
2023-03-16T09:07:49.082Z,255.10
2023-03-16T09:11:10.844Z,184.89
2023-03-16T09:14:23.722Z,251.25
2023-03-16T09:17:29.937Z,202.84
2023-03-16T09:20:37.999Z,152.78
2023-03-16T09:23:49.440Z,152.37
2023-03-16T09:26:56.282Z,211.94
2023-03-16T09:30:03.568Z,232.50
2023-03-16T09:33:13.633Z,237.88
2023-03-16T09:36:20.735Z,173.72
2023-03-16T09:39:30.859Z,178.82
2023-03-16T09:42:44.620Z,150.72
2023-03-16T09:46:06.927Z,172.53
2023-03-16T09:49:18.932Z,144.21
2023-03-16T09:52:40.362Z,121.70
2023-03-16T09:55:56.633Z,129.52
2023-03-16T09:59:04.869Z,95.83
2023-03-16T10:02:49.954Z,93.32
2023-03-16T10:06:04.771Z,93.60
2023-03-16T10:09:34.720Z,73.50
2023-03-16T10:12:53.749Z,66.36
2023-03-16T10:16:06.705Z,61.07
2023-03-16T10:19:23.563Z,68.83
2023-03-16T10:22:35.967Z,91.60
2023-03-16T10:25:50.833Z,85.13
2023-03-16T10:29:01.338Z,90.06
2023-03-16T10:32:19.768Z,91.18
2023-03-16T10:35:49.822Z,80.44
2023-03-16T10:39:01.049Z,103.96
2023-03-16T10:42:09.662Z,73.69
2023-03-16T10:45:32.288Z,72.41
2023-03-16T10:48:38.177Z,88.99
2023-03-16T10:51:48.631Z,74.72
2023-03-16T10:55:00.146Z,80.73
2023-03-16T10:58:06.928Z,74.43
2023-03-16T11:01:24.154Z,64.01
2023-03-16T11:04:36.230Z,60.16
2023-03-16T11:07:42.251Z,65.40
2023-03-16T11:10:57.918Z,70.71
2023-03-16T11:14:08.388Z,76.39
2023-03-16T11:17:27.730Z,72.26
2023-03-16T11:20:38.879Z,103.44
2023-03-16T11:23:58.385Z,99.75
2023-03-16T11:27:13.013Z,84.60
2023-03-16T11:30:31.171Z,70.77
2023-03-16T11:33:40.498Z,80.24
2023-03-16T11:37:00.146Z,62.16
2023-03-16T11:40:26.765Z,68.16
2023-03-16T11:43:57.152Z,47.53
2023-03-16T11:47:28.437Z,42.18
2023-03-16T11:51:01.520Z,53.38
2023-03-16T11:54:39.749Z,49.07
2023-03-16T11:58:09.435Z,57.52
2023-03-16T12:01:30.860Z,55.74
2023-03-16T12:05:09.857Z,80.26
2023-03-16T12:08:50.202Z,66.20
2023-03-16T12:12:08.140Z,51.78
2023-03-16T12:15:36.323Z,40.38
2023-03-16T12:18:52.014Z,44.46
2023-03-16T12:22:15.465Z,55.65
2023-03-16T12:25:32.046Z,60.90
2023-03-16T12:28:41.266Z,76.10
2023-03-16T12:31:58.856Z,105.38
2023-03-16T12:35:27.915Z,70.22
2023-03-16T12:38:50.337Z,63.68
2023-03-16T12:42:22.338Z,45.26
2023-03-16T12:45:46.514Z,60.15
2023-03-16T12:49:01.585Z,65.40
2023-03-16T12:52:13.693Z,61.16
2023-03-16T12:55:23.989Z,46.41
2023-03-16T12:58:34.664Z,43.74
2023-03-16T13:01:48.863Z,42.14
2023-03-16T13:05:03.482Z,47.45
2023-03-16T13:08:16.094Z,39.00
2023-03-16T13:11:23.105Z,44.08
2023-03-16T13:14:47.122Z,57.24
2023-03-16T13:18:10.084Z,45.10
2023-03-16T13:21:26.280Z,52.82
2023-03-16T13:24:43.237Z,57.70
2023-03-16T13:27:55.567Z,48.70
2023-03-16T13:31:06.868Z,47.01
2023-03-16T13:34:24.441Z,76.24
2023-03-16T13:37:34.236Z,97.44
2023-03-16T13:40:51.115Z,58.67
2023-03-16T13:43:57.933Z,54.88
2023-03-16T13:47:10.677Z,56.57
2023-03-16T13:50:19.861Z,80.44
2023-03-16T13:53:30.154Z,105.75
2023-03-16T13:56:37.491Z,59.89
2023-03-16T13:59:45.002Z,72.67
2023-03-16T14:02:57.491Z,64.61
2023-03-16T14:06:04.866Z,45.76
2023-03-16T14:09:23.573Z,53.17
2023-03-16T14:12:29.535Z,57.27
2023-03-16T14:15:37.262Z,49.86
2023-03-16T14:18:50.581Z,55.96
2023-03-16T14:21:57.883Z,97.47
2023-03-16T14:25:05.842Z,84.07
2023-03-16T14:28:18.938Z,44.81
2023-03-16T14:31:26.511Z,49.33
2023-03-16T14:34:41.906Z,62.58
2023-03-16T14:37:49.610Z,44.91
2023-03-16T14:41:00.965Z,60.84
2023-03-16T14:44:07.957Z,70.09
2023-03-16T14:47:28.327Z,85.91
2023-03-16T14:50:38.208Z,96.73
2023-03-16T14:53:45.517Z,299.05
2023-03-16T14:56:55.757Z,222.15
2023-03-16T15:00:02.521Z,64.65
2023-03-16T15:03:16.147Z,59.59
2023-03-16T15:06:31.489Z,67.16
2023-03-16T15:09:46.214Z,77.09
2023-03-16T15:13:04.575Z,90.95
2023-03-16T15:16:14.962Z,66.85
2023-03-16T15:19:22.442Z,81.07
2023-03-16T15:22:34.291Z,99.22
2023-03-16T15:25:43.994Z,93.31
2023-03-16T15:28:49.910Z,125.15
2023-03-16T15:31:56.935Z,90.72
2023-03-16T15:35:02.822Z,78.99
2023-03-16T15:38:21.760Z,94.51
2023-03-16T15:41:32.345Z,94.99
2023-03-16T15:44:45.229Z,95.61
2023-03-16T15:47:52.043Z,122.56
2023-03-16T15:51:04.022Z,64.60
2023-03-16T15:54:15.369Z,59.62
2023-03-16T15:57:22.901Z,62.76
2023-03-16T16:00:37.636Z,72.55
2023-03-16T16:03:45.038Z,71.80
2023-03-16T16:06:55.379Z,76.61
2023-03-16T16:10:05.322Z,68.74
2023-03-16T16:13:20.434Z,72.60
2023-03-16T16:16:32.229Z,105.64
2023-03-16T16:19:38.451Z,144.13
2023-03-16T16:22:45.516Z,108.79
2023-03-16T16:25:57.731Z,136.69
2023-03-16T16:29:14.619Z,200.22
2023-03-16T16:32:27.506Z,185.78
2023-03-16T16:35:34.268Z,203.90
2023-03-16T16:38:40.611Z,199.78
2023-03-16T16:41:54.858Z,175.06
2023-03-16T16:45:01.497Z,164.79
2023-03-16T16:48:33.380Z,180.72
2023-03-16T16:51:39.596Z,208.83
2023-03-16T16:54:51.132Z,203.51
2023-03-16T16:57:59.887Z,221.77
2023-03-16T17:01:07.471Z,310.55
2023-03-16T17:04:20.354Z,428.72
2023-03-16T17:07:28.205Z,458.18
2023-03-16T17:10:35.317Z,421.05
2023-03-16T17:13:47.036Z,346.73
2023-03-16T17:16:54.896Z,344.59
2023-03-16T17:20:02.114Z,373.96
2023-03-16T17:23:31.684Z,413.95
2023-03-16T17:26:50.882Z,432.26
2023-03-16T17:30:05.167Z,389.94
2023-03-16T17:33:20.442Z,382.07
2023-03-16T17:36:44.206Z,362.88
2023-03-16T17:39:52.446Z,683.03
2023-03-16T17:43:03.251Z,695.38
2023-03-16T17:46:25.396Z,618.87
2023-03-16T17:49:32.832Z,589.97
2023-03-16T17:52:40.308Z,547.32
2023-03-16T17:55:49.620Z,528.48
2023-03-16T17:59:10.453Z,545.13
2023-03-16T18:02:43.309Z,557.12
2023-03-16T18:05:51.251Z,581.34
2023-03-16T18:08:58.209Z,649.19
2023-03-16T18:12:09.532Z,659.30
2023-03-16T18:15:30.502Z,720.69
2023-03-16T18:18:46.355Z,777.63
2023-03-16T18:21:53.924Z,984.24
2023-03-16T18:25:31.861Z,1172.15
2023-03-16T18:28:40.814Z,1101.29
2023-03-16T18:32:04.064Z,1026.77
2023-03-16T18:35:24.171Z,962.85
2023-03-16T18:38:36.848Z,974.70
2023-03-16T18:41:47.116Z,933.44
2023-03-16T18:45:10.287Z,907.78
2023-03-16T18:48:29.615Z,865.27
2023-03-16T18:51:40.556Z,832.45
2023-03-16T18:54:48.535Z,817.45
2023-03-16T18:57:57.764Z,822.26
2023-03-16T19:01:18.658Z,888.77
2023-03-16T19:04:30.987Z,896.76
2023-03-16T19:07:43.826Z,939.81
2023-03-16T19:10:56.854Z,1126.12
2023-03-16T19:14:03.854Z,1043.31
2023-03-16T19:17:14.484Z,1158.51
2023-03-16T19:20:26.360Z,981.32
2023-03-16T19:23:43.631Z,910.12
2023-03-16T19:26:55.733Z,820.38
2023-03-16T19:30:04.123Z,768.92
2023-03-16T19:33:26.511Z,723.80
2023-03-16T19:36:39.951Z,752.18
2023-03-16T19:39:46.864Z,738.83
2023-03-16T19:42:56.282Z,702.61
2023-03-16T19:46:03.164Z,706.74
2023-03-16T19:49:20.134Z,701.14
2023-03-16T19:52:28.427Z,694.00
2023-03-16T19:55:37.037Z,691.46
2023-03-16T19:58:48.100Z,715.22
2023-03-16T20:01:55.803Z,674.33
2023-03-16T20:05:04.512Z,629.50
2023-03-16T20:08:24.685Z,654.15
2023-03-16T20:11:35.218Z,635.27
2023-03-16T20:14:42.989Z,603.58
2023-03-16T20:17:50.621Z,593.85
2023-03-16T20:21:00.434Z,626.86
2023-03-16T20:24:06.669Z,779.11
2023-03-16T20:27:16.397Z,652.93
2023-03-16T20:30:24.497Z,537.03
2023-03-16T20:33:31.985Z,463.87
2023-03-16T20:36:40.884Z,500.06
2023-03-16T20:39:47.681Z,527.17
2023-03-16T20:42:56.631Z,504.34
2023-03-16T20:46:06.004Z,490.16
2023-03-16T20:49:34.679Z,519.59
2023-03-16T20:52:44.819Z,565.06
2023-03-16T20:55:51.460Z,538.13
2023-03-16T20:58:59.265Z,559.02
2023-03-16T21:02:06.374Z,448.93
2023-03-16T21:05:16.171Z,384.71
2023-03-16T21:08:24.925Z,397.48
2023-03-16T21:11:39.252Z,426.24
2023-03-16T21:14:45.302Z,505.56
2023-03-16T21:18:01.149Z,593.35
2023-03-16T21:21:07.660Z,1167.77
2023-03-16T21:24:17.115Z,686.29
2023-03-16T21:27:30.744Z,614.73
2023-03-16T21:30:42.997Z,654.25
2023-03-16T21:33:49.942Z,644.97
2023-03-16T21:36:56.812Z,648.65
2023-03-16T21:40:05.345Z,672.97
2023-03-16T21:43:12.682Z,691.59
2023-03-16T21:46:22.766Z,677.72
2023-03-16T21:49:29.792Z,660.08
2023-03-16T21:52:36.174Z,669.45
2023-03-16T21:55:45.886Z,636.13
2023-03-16T21:58:53.715Z,607.41
2023-03-16T22:02:02.213Z,609.87
2023-03-16T22:05:37.854Z,588.40
2023-03-16T22:08:44.687Z,584.59
2023-03-16T22:11:53.872Z,580.03
2023-03-16T22:15:00.615Z,564.65
2023-03-16T22:18:18.166Z,550.74
2023-03-16T22:21:37.813Z,566.46
2023-03-16T22:24:46.271Z,712.52
2023-03-16T22:27:56.767Z,725.66
2023-03-16T22:31:07.140Z,668.24
2023-03-16T22:34:32.386Z,658.63
2023-03-16T22:37:38.462Z,656.88
2023-03-16T22:40:46.959Z,651.69
2023-03-16T22:43:57.021Z,675.30
2023-03-16T22:47:03.686Z,671.27
2023-03-16T22:50:10.707Z,656.37
2023-03-16T22:53:30.046Z,640.87
2023-03-16T22:56:38.078Z,652.70
2023-03-16T22:59:50.294Z,664.85
2023-03-16T23:02:58.573Z,763.90
2023-03-16T23:06:09.189Z,782.22
2023-03-16T23:09:16.914Z,748.61
2023-03-16T23:12:25.353Z,786.36
2023-03-16T23:15:35.465Z,760.77
2023-03-16T23:18:42.278Z,714.10
2023-03-16T23:21:48.096Z,715.29
2023-03-16T23:24:55.043Z,709.88
2023-03-16T23:28:05.718Z,744.27
2023-03-16T23:31:17.697Z,783.20
2023-03-16T23:34:27.102Z,802.80
2023-03-16T23:37:33.780Z,796.32
2023-03-16T23:40:42.393Z,763.23
2023-03-16T23:43:52.008Z,778.08
2023-03-16T23:47:02.924Z,778.82
2023-03-16T23:50:14.755Z,773.37
2023-03-16T23:53:22.984Z,756.78
2023-03-16T23:56:30.084Z,767.58
2023-03-16T23:59:36.306Z,752.74
